createdAt,value
2022-10-18T00:01:42.035Z,10.06
2022-10-18T00:06:43.414Z,10
2022-10-18T00:11:42.004Z,9.81
2022-10-18T00:16:42.003Z,9.87
2022-10-18T00:21:42.072Z,9.81
2022-10-18T00:26:42.002Z,9.87
2022-10-18T00:31:42.006Z,9.75
2022-10-18T00:36:41.985Z,10
2022-10-18T00:41:41.966Z,9.75
2022-10-18T00:46:41.979Z,9.87
2022-10-18T00:51:42.001Z,9.93
2022-10-18T00:56:41.978Z,10
2022-10-18T01:01:41.983Z,10
2022-10-18T01:06:41.968Z,9.81
2022-10-18T01:11:41.953Z,9.87
2022-10-18T01:16:41.961Z,9.93
2022-10-18T01:21:41.945Z,9.81
2022-10-18T01:26:41.942Z,9.81
2022-10-18T01:31:41.932Z,9.81
2022-10-18T01:36:41.975Z,9.68
2022-10-18T01:41:41.958Z,9.62
2022-10-18T01:46:41.915Z,9.75
2022-10-18T01:51:41.913Z,10
2022-10-18T01:56:41.908Z,10.62
2022-10-18T02:01:41.886Z,10.87
2022-10-18T02:06:41.910Z,10.93
2022-10-18T02:11:41.896Z,11.18
2022-10-18T02:16:41.897Z,10.93
2022-10-18T02:21:41.882Z,10.81
2022-10-18T02:26:41.889Z,10.62
2022-10-18T02:31:41.891Z,10.18
2022-10-18T02:36:41.852Z,9.93
2022-10-18T02:41:41.866Z,9.81
2022-10-18T02:46:41.861Z,9.68
2022-10-18T02:51:41.857Z,9.62
2022-10-18T02:56:41.942Z,9.62
2022-10-18T03:01:41.882Z,9.5
2022-10-18T03:06:41.833Z,9.43
2022-10-18T03:11:41.840Z,9.37
2022-10-18T03:16:41.822Z,9.56
2022-10-18T03:21:41.828Z,9.43
2022-10-18T03:26:41.821Z,9.43
2022-10-18T03:31:41.827Z,9.31
2022-10-18T03:36:41.807Z,9.56
2022-10-18T03:41:41.820Z,9.43
2022-10-18T03:46:41.807Z,9.62
2022-10-18T03:56:41.787Z,9.62
2022-10-18T04:01:41.809Z,10.12
2022-10-18T04:06:41.774Z,10
2022-10-18T04:16:41.769Z,10.25
2022-10-18T04:31:41.757Z,10.37
2022-10-18T04:46:41.748Z,10.31
2022-10-18T05:06:41.723Z,10.37
2022-10-18T05:11:41.718Z,10.43
2022-10-18T05:16:41.723Z,10.37
2022-10-18T05:21:41.695Z,10.5
2022-10-18T05:26:41.708Z,10.31
2022-10-18T05:31:41.697Z,10.12
2022-10-18T05:36:41.698Z,9.75
2022-10-18T05:41:41.697Z,9.68
2022-10-18T05:46:41.681Z,9.43
2022-10-18T05:51:41.712Z,9.93
2022-10-18T05:56:41.675Z,10.25
2022-10-18T06:01:41.664Z,10.93
2022-10-18T06:06:41.677Z,11.62
2022-10-18T06:11:41.668Z,11.62
2022-10-18T06:16:41.646Z,12.93
2022-10-18T06:21:41.638Z,13.75
2022-10-18T06:26:41.647Z,13.25
2022-10-18T06:31:41.655Z,13.93
2022-10-18T06:36:41.648Z,14.18
2022-10-18T06:41:41.620Z,12.31
2022-10-18T06:46:41.640Z,11.75
2022-10-18T06:51:41.612Z,11.87
2022-10-18T06:56:41.607Z,12.31
2022-10-18T07:06:41.634Z,13.12
2022-10-18T07:11:41.661Z,13
2022-10-18T07:16:41.603Z,13.43
2022-10-18T07:21:41.582Z,13.68
2022-10-18T07:26:41.583Z,13.81
2022-10-18T07:31:41.582Z,14.18
2022-10-18T07:36:41.573Z,13.81
2022-10-18T07:41:41.562Z,13.81
2022-10-18T07:46:41.554Z,13.93
2022-10-18T07:51:41.572Z,14.12
2022-10-18T07:56:41.555Z,14.06
2022-10-18T08:01:41.585Z,13.93
2022-10-18T08:06:41.548Z,13.68
2022-10-18T08:11:41.527Z,13.68
2022-10-18T08:16:41.524Z,14
2022-10-18T08:21:41.518Z,14.37
2022-10-18T08:31:41.497Z,14.75
2022-10-18T08:36:41.501Z,14.81
2022-10-18T08:46:41.483Z,15.18
2022-10-18T08:51:41.488Z,15.18
2022-10-18T08:56:41.474Z,15.31
2022-10-18T09:01:41.555Z,15.93
2022-10-18T09:16:41.447Z,16.37
2022-10-18T09:21:41.467Z,16.43
2022-10-18T09:51:41.400Z,17.06
2022-10-18T09:56:41.949Z,17.25
2022-10-18T10:01:41.387Z,17.37
2022-10-18T10:06:41.385Z,17.56
2022-10-18T10:11:41.376Z,17.93
2022-10-18T10:16:41.396Z,17.93
2022-10-18T10:21:41.361Z,18.31
2022-10-18T10:26:41.364Z,18.43
2022-10-18T10:31:41.364Z,18.56
2022-10-18T10:36:41.356Z,18.68
2022-10-18T10:41:41.362Z,18.68
2022-10-18T10:46:41.348Z,19.18
2022-10-18T10:51:41.331Z,19.31
2022-10-18T10:56:41.330Z,19.62
2022-10-18T11:01:41.339Z,19.62
2022-10-18T11:06:41.311Z,19.87
2022-10-18T11:11:41.304Z,19.81
2022-10-18T11:16:41.290Z,20
2022-10-18T11:21:41.290Z,20.06
2022-10-18T11:26:42.208Z,19.81
2022-10-18T11:31:41.291Z,19.87
2022-10-18T11:36:45.343Z,20.18
2022-10-18T11:41:41.267Z,20.06
2022-10-18T11:46:41.264Z,20.37
2022-10-18T11:51:56.255Z,20.12
2022-10-18T11:56:41.250Z,20.43
2022-10-18T12:01:41.238Z,20.56
2022-10-18T12:06:41.242Z,20.43
2022-10-18T12:11:44.057Z,20.62
2022-10-18T12:17:13.723Z,20.18
2022-10-18T12:21:41.211Z,20.87
2022-10-18T12:26:41.194Z,20.75
2022-10-18T12:31:41.212Z,20.81
2022-10-18T12:36:41.206Z,21
2022-10-18T12:41:41.194Z,20.93
2022-10-18T12:46:41.192Z,21.06
2022-10-18T12:51:41.168Z,21
2022-10-18T12:56:41.173Z,20.75
2022-10-18T13:01:41.231Z,20.75
2022-10-18T13:06:41.154Z,20.81
2022-10-18T13:11:41.157Z,20.81
2022-10-18T13:16:41.154Z,20.81
2022-10-18T13:26:41.121Z,20.87
2022-10-18T13:31:41.123Z,20.93
2022-10-18T13:36:41.139Z,20.56
2022-10-18T13:41:41.129Z,20.87
2022-10-18T13:46:41.119Z,20.87
2022-10-18T13:51:41.097Z,21
2022-10-18T13:56:41.083Z,20.81
2022-10-18T14:06:41.090Z,20.93
2022-10-18T14:11:44.112Z,21.06
2022-10-18T14:16:41.055Z,20.75
2022-10-18T14:21:41.062Z,20.56
2022-10-18T14:26:41.072Z,20.5
2022-10-18T14:31:41.047Z,20.75
2022-10-18T14:36:41.054Z,20.31
2022-10-18T14:41:41.032Z,20.31
2022-10-18T14:46:41.034Z,20.12
2022-10-18T14:51:41.018Z,19.68
2022-10-18T14:56:41.028Z,19.75
2022-10-18T15:01:41.050Z,19.81
2022-10-18T15:06:40.994Z,19.56
2022-10-18T15:11:41.013Z,19.68
2022-10-18T15:16:41.027Z,19.62
2022-10-18T15:21:40.977Z,19.62
2022-10-18T15:26:40.990Z,19.56
2022-10-18T15:31:41.001Z,19.37
2022-10-18T15:36:41.051Z,19.25
2022-10-18T15:41:40.965Z,19.06
2022-10-18T15:46:40.947Z,18.87
2022-10-18T15:51:40.953Z,18.56
2022-10-18T15:56:40.943Z,18.31
2022-10-18T16:11:40.921Z,18.12
2022-10-18T16:16:40.923Z,17.93
2022-10-18T16:21:40.925Z,17.68
2022-10-18T16:26:40.895Z,17.75
2022-10-18T16:31:40.924Z,17.56
2022-10-18T16:41:40.871Z,17.25
2022-10-18T17:06:40.842Z,16.68
2022-10-18T17:16:40.847Z,16.37
2022-10-18T17:21:40.833Z,16.68
2022-10-18T17:26:40.826Z,16.68
2022-10-18T17:31:40.889Z,16.25
2022-10-18T17:36:40.818Z,16
2022-10-18T17:41:40.801Z,15.68
2022-10-18T17:46:40.788Z,15.75
2022-10-18T17:51:40.802Z,15.87
2022-10-18T17:56:40.777Z,16
2022-10-18T18:01:40.844Z,15.93
2022-10-18T18:06:40.760Z,15.93
2022-10-18T18:11:40.765Z,15.87
2022-10-18T18:16:40.762Z,15.81
2022-10-18T18:21:40.753Z,15.75
2022-10-18T18:26:40.754Z,15.62
2022-10-18T18:31:43.395Z,15.31
2022-10-18T18:36:40.745Z,15.12
2022-10-18T18:41:40.723Z,14.93
2022-10-18T18:46:40.720Z,14.81
2022-10-18T18:51:40.697Z,14.43
2022-10-18T18:56:40.706Z,14.31
2022-10-18T19:01:40.743Z,14.25
2022-10-18T19:06:40.703Z,14.37
2022-10-18T19:11:40.688Z,14.5
2022-10-18T19:16:40.691Z,14.06
2022-10-18T19:21:40.683Z,14.06
2022-10-18T19:26:40.679Z,14.12
2022-10-18T19:31:40.671Z,14.06
2022-10-18T19:36:40.667Z,13.87
2022-10-18T19:41:40.661Z,13.93
2022-10-18T19:46:40.646Z,13.75
2022-10-18T19:51:40.659Z,14
2022-10-18T19:56:40.656Z,14.12
2022-10-18T20:01:40.661Z,14.25
2022-10-18T20:06:40.632Z,14.31
2022-10-18T20:11:40.628Z,13.87
2022-10-18T20:16:40.625Z,13.68
2022-10-18T20:21:40.601Z,13.37
2022-10-18T20:26:40.665Z,13.25
2022-10-18T20:31:40.618Z,13.06
2022-10-18T20:36:40.627Z,13.12
2022-10-18T20:41:40.585Z,12.87
2022-10-18T20:46:40.594Z,12.75
2022-10-18T20:51:40.578Z,12.56
2022-10-18T20:56:40.566Z,12.5
2022-10-18T21:01:40.636Z,12.43
2022-10-18T21:06:40.567Z,12.43
2022-10-18T21:11:40.566Z,12.62
2022-10-18T21:16:40.555Z,12.68
2022-10-18T21:26:40.530Z,12.75
2022-10-18T21:31:40.554Z,12.56
2022-10-18T21:36:40.541Z,12.5
2022-10-18T21:41:40.539Z,12.56
2022-10-18T21:46:40.514Z,12.62
2022-10-18T21:51:40.505Z,12.75
2022-10-18T21:56:40.503Z,12.87
2022-10-18T22:12:00.523Z,12.87
2022-10-18T22:16:40.488Z,13.12
2022-10-18T22:21:40.475Z,13.06
2022-10-18T22:26:40.467Z,13.37
2022-10-18T22:31:40.474Z,13.56
2022-10-18T22:36:40.466Z,13.43
2022-10-18T22:41:40.459Z,13.43
2022-10-18T22:46:40.470Z,13.5
2022-10-18T22:51:40.438Z,13.5
2022-10-18T22:56:40.428Z,13.56
2022-10-18T23:01:40.426Z,13.5
2022-10-18T23:06:40.420Z,13.5
2022-10-18T23:11:40.436Z,13.31
2022-10-18T23:21:40.397Z,13.12
2022-10-18T23:26:40.393Z,12.93
2022-10-18T23:31:40.391Z,13.06
2022-10-18T23:36:40.452Z,12.75
2022-10-18T23:41:40.377Z,12.5
2022-10-18T23:46:40.377Z,12.37
2022-10-18T23:51:40.364Z,12.18
